sensor_id;sensor_type;location;lat;lon;timestamp;P1;durP1;ratioP1;P2;durP2;ratioP2
19776;SDS011;10047;42.490;26.012;2023-03-01T00:01:20;1.63;;;1.10;;
19776;SDS011;10047;42.490;26.012;2023-03-01T00:03:47;1.08;;;0.90;;
19776;SDS011;10047;42.490;26.012;2023-03-01T00:06:13;1.13;;;0.80;;
19776;SDS011;10047;42.490;26.012;2023-03-01T00:08:39;1.13;;;0.75;;
19776;SDS011;10047;42.490;26.012;2023-03-01T00:11:09;1.10;;;0.70;;
19776;SDS011;10047;42.490;26.012;2023-03-01T00:13:55;1.00;;;0.80;;
19776;SDS011;10047;42.490;26.012;2023-03-01T00:16:26;0.75;;;0.75;;
19776;SDS011;10047;42.490;26.012;2023-03-01T00:18:53;0.98;;;0.70;;
19776;SDS011;10047;42.490;26.012;2023-03-01T00:21:23;0.85;;;0.70;;
19776;SDS011;10047;42.490;26.012;2023-03-01T00:23:49;1.08;;;0.80;;
19776;SDS011;10047;42.490;26.012;2023-03-01T00:26:15;1.83;;;0.90;;
19776;SDS011;10047;42.490;26.012;2023-03-01T00:28:42;1.08;;;0.75;;
19776;SDS011;10047;42.490;26.012;2023-03-01T00:31:15;2.03;;;1.00;;
19776;SDS011;10047;42.490;26.012;2023-03-01T00:33:46;1.25;;;0.90;;
19776;SDS011;10047;42.490;26.012;2023-03-01T00:36:13;1.70;;;1.25;;
19776;SDS011;10047;42.490;26.012;2023-03-01T00:38:41;2.03;;;1.40;;
19776;SDS011;10047;42.490;26.012;2023-03-01T00:41:09;2.25;;;1.55;;
19776;SDS011;10047;42.490;26.012;2023-03-01T00:43:36;0.80;;;0.80;;
19776;SDS011;10047;42.490;26.012;2023-03-01T00:46:03;1.20;;;0.90;;
19776;SDS011;10047;42.490;26.012;2023-03-01T00:48:30;1.02;;;0.80;;
19776;SDS011;10047;42.490;26.012;2023-03-01T00:50:55;1.15;;;0.90;;
19776;SDS011;10047;42.490;26.012;2023-03-01T00:53:20;1.83;;;1.20;;
19776;SDS011;10047;42.490;26.012;2023-03-01T00:55:46;2.55;;;1.70;;
19776;SDS011;10047;42.490;26.012;2023-03-01T00:58:11;2.13;;;1.70;;
19776;SDS011;10047;42.490;26.012;2023-03-01T01:00:37;1.40;;;1.20;;
19776;SDS011;10047;42.490;26.012;2023-03-01T01:03:02;1.20;;;0.90;;
19776;SDS011;10047;42.490;26.012;2023-03-01T01:05:28;1.92;;;0.70;;
19776;SDS011;10047;42.490;26.012;2023-03-01T01:07:53;1.40;;;0.98;;
19776;SDS011;10047;42.490;26.012;2023-03-01T01:10:18;1.42;;;0.90;;
19776;SDS011;10047;42.490;26.012;2023-03-01T01:12:45;0.98;;;0.77;;
19776;SDS011;10047;42.490;26.012;2023-03-01T01:15:11;0.70;;;0.70;;
19776;SDS011;10047;42.490;26.012;2023-03-01T01:17:39;0.50;;;0.50;;
19776;SDS011;10047;42.490;26.012;2023-03-01T01:20:05;0.82;;;0.70;;
19776;SDS011;10047;42.490;26.012;2023-03-01T01:22:31;0.52;;;0.52;;
19776;SDS011;10047;42.490;26.012;2023-03-01T01:24:56;1.02;;;0.50;;
19776;SDS011;10047;42.490;26.012;2023-03-01T01:27:22;2.20;;;0.98;;
19776;SDS011;10047;42.490;26.012;2023-03-01T01:29:47;1.05;;;0.80;;
19776;SDS011;10047;42.490;26.012;2023-03-01T01:32:13;0.80;;;0.68;;
19776;SDS011;10047;42.490;26.012;2023-03-01T01:34:38;0.90;;;0.70;;
19776;SDS011;10047;42.490;26.012;2023-03-01T01:37:04;0.93;;;0.73;;
19776;SDS011;10047;42.490;26.012;2023-03-01T01:39:32;0.70;;;0.55;;
19776;SDS011;10047;42.490;26.012;2023-03-01T01:41:59;1.35;;;0.60;;
19776;SDS011;10047;42.490;26.012;2023-03-01T01:44:26;0.90;;;0.70;;
19776;SDS011;10047;42.490;26.012;2023-03-01T01:46:58;0.93;;;0.70;;
19776;SDS011;10047;42.490;26.012;2023-03-01T01:49:46;1.52;;;1.00;;
19776;SDS011;10047;42.490;26.012;2023-03-01T01:57:14;0.70;;;0.70;;
19776;SDS011;10047;42.490;26.012;2023-03-01T01:59:45;0.88;;;0.80;;
19776;SDS011;10047;42.490;26.012;2023-03-01T02:02:17;0.50;;;0.50;;
19776;SDS011;10047;42.490;26.012;2023-03-01T02:04:44;0.60;;;0.60;;
19776;SDS011;10047;42.490;26.012;2023-03-01T02:07:16;0.60;;;0.60;;
19776;SDS011;10047;42.490;26.012;2023-03-01T02:09:47;0.60;;;0.55;;
19776;SDS011;10047;42.490;26.012;2023-03-01T02:12:19;0.70;;;0.60;;
19776;SDS011;10047;42.490;26.012;2023-03-01T02:14:48;0.70;;;0.50;;
19776;SDS011;10047;42.490;26.012;2023-03-01T02:17:14;0.60;;;0.50;;
19776;SDS011;10047;42.490;26.012;2023-03-01T02:22:42;0.50;;;0.45;;
19776;SDS011;10047;42.490;26.012;2023-03-01T02:30:38;1.30;;;0.55;;
19776;SDS011;10047;42.490;26.012;2023-03-01T02:33:24;0.38;;;0.38;;
19776;SDS011;10047;42.490;26.012;2023-03-01T02:35:50;0.43;;;0.43;;
19776;SDS011;10047;42.490;26.012;2023-03-01T02:38:17;0.60;;;0.50;;
19776;SDS011;10047;42.490;26.012;2023-03-01T02:40:43;0.63;;;0.60;;
19776;SDS011;10047;42.490;26.012;2023-03-01T02:43:10;1.17;;;0.60;;
19776;SDS011;10047;42.490;26.012;2023-03-01T02:45:36;0.80;;;0.70;;
19776;SDS011;10047;42.490;26.012;2023-03-01T02:48:02;2.95;;;0.68;;
19776;SDS011;10047;42.490;26.012;2023-03-01T02:52:56;0.80;;;0.70;;
19776;SDS011;10047;42.490;26.012;2023-03-01T02:55:26;0.82;;;0.70;;
19776;SDS011;10047;42.490;26.012;2023-03-01T02:57:52;0.70;;;0.70;;
19776;SDS011;10047;42.490;26.012;2023-03-01T03:00:23;1.00;;;0.80;;
19776;SDS011;10047;42.490;26.012;2023-03-01T03:02:54;0.90;;;0.60;;
19776;SDS011;10047;42.490;26.012;2023-03-01T03:05:31;0.68;;;0.60;;
19776;SDS011;10047;42.490;26.012;2023-03-01T03:07:57;0.90;;;0.80;;
19776;SDS011;10047;42.490;26.012;2023-03-01T03:10:25;1.10;;;0.75;;
19776;SDS011;10047;42.490;26.012;2023-03-01T03:12:57;0.80;;;0.70;;
19776;SDS011;10047;42.490;26.012;2023-03-01T03:15:26;1.27;;;1.00;;
19776;SDS011;10047;42.490;26.012;2023-03-01T03:17:53;1.80;;;1.40;;
19776;SDS011;10047;42.490;26.012;2023-03-01T03:20:19;1.92;;;1.40;;
19776;SDS011;10047;42.490;26.012;2023-03-01T03:22:47;3.53;;;1.60;;
19776;SDS011;10047;42.490;26.012;2023-03-01T03:25:14;1.48;;;1.00;;
19776;SDS011;10047;42.490;26.012;2023-03-01T03:27:42;1.17;;;0.90;;
19776;SDS011;10047;42.490;26.012;2023-03-01T03:30:10;1.30;;;0.80;;
19776;SDS011;10047;42.490;26.012;2023-03-01T03:32:41;0.88;;;0.80;;
19776;SDS011;10047;42.490;26.012;2023-03-01T03:35:17;1.05;;;0.80;;
19776;SDS011;10047;42.490;26.012;2023-03-01T03:37:50;0.88;;;0.70;;
19776;SDS011;10047;42.490;26.012;2023-03-01T03:40:32;0.82;;;0.55;;
19776;SDS011;10047;42.490;26.012;2023-03-01T03:42:58;1.08;;;0.80;;
19776;SDS011;10047;42.490;26.012;2023-03-01T03:45:23;1.17;;;1.00;;
19776;SDS011;10047;42.490;26.012;2023-03-01T03:47:49;2.78;;;1.67;;
19776;SDS011;10047;42.490;26.012;2023-03-01T03:50:15;3.17;;;2.60;;
19776;SDS011;10047;42.490;26.012;2023-03-01T03:52:42;3.53;;;2.90;;
19776;SDS011;10047;42.490;26.012;2023-03-01T03:55:08;3.47;;;2.58;;
19776;SDS011;10047;42.490;26.012;2023-03-01T03:57:35;3.03;;;1.70;;
19776;SDS011;10047;42.490;26.012;2023-03-01T04:00:05;1.02;;;0.70;;
19776;SDS011;10047;42.490;26.012;2023-03-01T04:02:43;1.88;;;0.90;;
19776;SDS011;10047;42.490;26.012;2023-03-01T04:05:11;0.93;;;0.82;;
19776;SDS011;10047;42.490;26.012;2023-03-01T04:07:39;1.52;;;1.02;;
19776;SDS011;10047;42.490;26.012;2023-03-01T04:10:06;1.20;;;0.80;;
19776;SDS011;10047;42.490;26.012;2023-03-01T04:12:35;1.60;;;1.20;;
19776;SDS011;10047;42.490;26.012;2023-03-01T04:15:02;1.15;;;0.85;;
19776;SDS011;10047;42.490;26.012;2023-03-01T04:17:40;2.03;;;0.95;;
19776;SDS011;10047;42.490;26.012;2023-03-01T04:20:06;5.63;;;1.35;;
19776;SDS011;10047;42.490;26.012;2023-03-01T04:22:34;4.82;;;1.02;;
19776;SDS011;10047;42.490;26.012;2023-03-01T04:25:00;2.45;;;1.40;;
19776;SDS011;10047;42.490;26.012;2023-03-01T04:27:34;2.08;;;1.60;;
19776;SDS011;10047;42.490;26.012;2023-03-01T04:30:01;2.13;;;1.63;;
19776;SDS011;10047;42.490;26.012;2023-03-01T04:32:28;3.85;;;2.70;;
19776;SDS011;10047;42.490;26.012;2023-03-01T04:34:53;3.20;;;2.70;;
19776;SDS011;10047;42.490;26.012;2023-03-01T04:37:19;3.40;;;2.00;;
19776;SDS011;10047;42.490;26.012;2023-03-01T04:39:44;2.58;;;2.10;;
19776;SDS011;10047;42.490;26.012;2023-03-01T04:42:13;3.05;;;2.42;;
19776;SDS011;10047;42.490;26.012;2023-03-01T04:44:39;2.60;;;1.90;;
19776;SDS011;10047;42.490;26.012;2023-03-01T04:47:05;2.53;;;1.70;;
19776;SDS011;10047;42.490;26.012;2023-03-01T04:49:30;2.10;;;1.58;;
19776;SDS011;10047;42.490;26.012;2023-03-01T04:51:56;2.00;;;1.50;;
19776;SDS011;10047;42.490;26.012;2023-03-01T04:54:27;1.90;;;1.70;;
19776;SDS011;10047;42.490;26.012;2023-03-01T04:56:53;2.80;;;2.00;;
19776;SDS011;10047;42.490;26.012;2023-03-01T04:59:18;2.75;;;1.98;;
19776;SDS011;10047;42.490;26.012;2023-03-01T05:01:47;2.50;;;1.85;;
19776;SDS011;10047;42.490;26.012;2023-03-01T05:04:13;2.63;;;2.10;;
19776;SDS011;10047;42.490;26.012;2023-03-01T05:06:39;2.60;;;2.10;;
19776;SDS011;10047;42.490;26.012;2023-03-01T05:09:04;3.97;;;3.13;;
19776;SDS011;10047;42.490;26.012;2023-03-01T05:11:30;6.05;;;4.97;;
19776;SDS011;10047;42.490;26.012;2023-03-01T05:13:58;3.95;;;3.55;;
19776;SDS011;10047;42.490;26.012;2023-03-01T05:16:24;2.83;;;2.10;;
19776;SDS011;10047;42.490;26.012;2023-03-01T05:18:49;2.53;;;2.00;;
19776;SDS011;10047;42.490;26.012;2023-03-01T05:21:17;2.17;;;1.70;;
19776;SDS011;10047;42.490;26.012;2023-03-01T05:23:43;2.10;;;1.77;;
19776;SDS011;10047;42.490;26.012;2023-03-01T05:26:09;2.42;;;1.90;;
19776;SDS011;10047;42.490;26.012;2023-03-01T05:28:35;2.72;;;1.70;;
19776;SDS011;10047;42.490;26.012;2023-03-01T05:31:00;3.70;;;2.10;;
19776;SDS011;10047;42.490;26.012;2023-03-01T05:33:26;3.00;;;2.15;;
19776;SDS011;10047;42.490;26.012;2023-03-01T05:35:52;3.53;;;2.42;;
19776;SDS011;10047;42.490;26.012;2023-03-01T05:38:18;2.67;;;2.22;;
19776;SDS011;10047;42.490;26.012;2023-03-01T05:40:46;4.03;;;2.22;;
19776;SDS011;10047;42.490;26.012;2023-03-01T05:43:14;3.78;;;2.65;;
19776;SDS011;10047;42.490;26.012;2023-03-01T05:45:40;6.80;;;2.70;;
19776;SDS011;10047;42.490;26.012;2023-03-01T05:48:07;4.68;;;2.67;;
19776;SDS011;10047;42.490;26.012;2023-03-01T05:50:37;5.22;;;3.30;;
19776;SDS011;10047;42.490;26.012;2023-03-01T05:53:06;3.92;;;2.50;;
19776;SDS011;10047;42.490;26.012;2023-03-01T05:55:34;4.45;;;3.17;;
19776;SDS011;10047;42.490;26.012;2023-03-01T05:58:02;4.10;;;2.60;;
19776;SDS011;10047;42.490;26.012;2023-03-01T06:00:29;5.38;;;3.10;;
19776;SDS011;10047;42.490;26.012;2023-03-01T06:02:55;3.70;;;2.05;;
19776;SDS011;10047;42.490;26.012;2023-03-01T06:05:22;3.85;;;2.60;;
19776;SDS011;10047;42.490;26.012;2023-03-01T06:07:47;3.25;;;2.25;;
19776;SDS011;10047;42.490;26.012;2023-03-01T06:10:13;4.10;;;2.40;;
19776;SDS011;10047;42.490;26.012;2023-03-01T06:12:40;4.18;;;2.95;;
19776;SDS011;10047;42.490;26.012;2023-03-01T06:15:07;4.13;;;2.85;;
19776;SDS011;10047;42.490;26.012;2023-03-01T06:17:34;5.43;;;3.15;;
19776;SDS011;10047;42.490;26.012;2023-03-01T06:20:05;4.90;;;2.90;;
19776;SDS011;10047;42.490;26.012;2023-03-01T06:22:35;4.05;;;2.85;;
19776;SDS011;10047;42.490;26.012;2023-03-01T06:25:00;4.57;;;2.75;;
19776;SDS011;10047;42.490;26.012;2023-03-01T06:27:26;4.57;;;2.72;;
19776;SDS011;10047;42.490;26.012;2023-03-01T06:29:52;4.60;;;3.00;;
19776;SDS011;10047;42.490;26.012;2023-03-01T06:32:17;6.88;;;4.50;;
19776;SDS011;10047;42.490;26.012;2023-03-01T06:34:43;8.30;;;4.40;;
19776;SDS011;10047;42.490;26.012;2023-03-01T06:37:09;7.32;;;4.72;;
19776;SDS011;10047;42.490;26.012;2023-03-01T06:39:35;6.05;;;4.50;;
19776;SDS011;10047;42.490;26.012;2023-03-01T06:42:01;6.13;;;3.75;;
19776;SDS011;10047;42.490;26.012;2023-03-01T06:44:26;4.68;;;3.30;;
19776;SDS011;10047;42.490;26.012;2023-03-01T06:46:52;4.38;;;3.17;;
19776;SDS011;10047;42.490;26.012;2023-03-01T06:49:18;4.85;;;3.42;;
19776;SDS011;10047;42.490;26.012;2023-03-01T06:51:44;5.43;;;3.30;;
19776;SDS011;10047;42.490;26.012;2023-03-01T06:54:11;5.93;;;3.78;;
19776;SDS011;10047;42.490;26.012;2023-03-01T06:56:36;7.72;;;5.28;;
19776;SDS011;10047;42.490;26.012;2023-03-01T06:59:02;5.35;;;3.88;;
19776;SDS011;10047;42.490;26.012;2023-03-01T07:01:28;5.88;;;4.65;;
19776;SDS011;10047;42.490;26.012;2023-03-01T07:03:54;5.45;;;3.78;;
19776;SDS011;10047;42.490;26.012;2023-03-01T07:06:20;4.90;;;3.40;;
19776;SDS011;10047;42.490;26.012;2023-03-01T07:08:46;3.45;;;2.55;;
19776;SDS011;10047;42.490;26.012;2023-03-01T07:11:11;4.68;;;2.90;;
19776;SDS011;10047;42.490;26.012;2023-03-01T07:13:37;4.82;;;2.90;;
19776;SDS011;10047;42.490;26.012;2023-03-01T07:16:03;5.45;;;3.40;;
19776;SDS011;10047;42.490;26.012;2023-03-01T07:18:28;4.85;;;2.72;;
19776;SDS011;10047;42.490;26.012;2023-03-01T07:20:54;4.45;;;2.70;;
19776;SDS011;10047;42.490;26.012;2023-03-01T07:23:19;3.97;;;2.53;;
19776;SDS011;10047;42.490;26.012;2023-03-01T07:25:50;6.57;;;3.40;;
19776;SDS011;10047;42.490;26.012;2023-03-01T07:28:17;5.20;;;2.60;;
19776;SDS011;10047;42.490;26.012;2023-03-01T07:30:42;5.15;;;2.80;;
19776;SDS011;10047;42.490;26.012;2023-03-01T07:33:07;3.55;;;2.22;;
19776;SDS011;10047;42.490;26.012;2023-03-01T07:35:33;5.85;;;2.97;;
19776;SDS011;10047;42.490;26.012;2023-03-01T07:37:59;4.57;;;2.70;;
19776;SDS011;10047;42.490;26.012;2023-03-01T07:40:25;6.28;;;3.90;;
19776;SDS011;10047;42.490;26.012;2023-03-01T07:42:54;5.18;;;3.63;;
19776;SDS011;10047;42.490;26.012;2023-03-01T07:45:23;8.32;;;4.55;;
19776;SDS011;10047;42.490;26.012;2023-03-01T07:47:50;8.60;;;4.32;;
19776;SDS011;10047;42.490;26.012;2023-03-01T07:50:16;8.57;;;4.68;;
19776;SDS011;10047;42.490;26.012;2023-03-01T07:52:44;8.50;;;4.38;;
19776;SDS011;10047;42.490;26.012;2023-03-01T07:55:10;7.45;;;3.90;;
19776;SDS011;10047;42.490;26.012;2023-03-01T07:57:36;5.97;;;3.97;;
19776;SDS011;10047;42.490;26.012;2023-03-01T08:00:02;5.00;;;3.30;;
19776;SDS011;10047;42.490;26.012;2023-03-01T08:02:28;6.75;;;4.13;;
19776;SDS011;10047;42.490;26.012;2023-03-01T08:04:53;5.72;;;4.00;;
19776;SDS011;10047;42.490;26.012;2023-03-01T08:07:19;7.07;;;4.57;;
19776;SDS011;10047;42.490;26.012;2023-03-01T08:09:44;9.98;;;5.53;;
19776;SDS011;10047;42.490;26.012;2023-03-01T08:12:10;7.00;;;3.50;;
19776;SDS011;10047;42.490;26.012;2023-03-01T08:14:35;5.03;;;3.33;;
19776;SDS011;10047;42.490;26.012;2023-03-01T08:17:01;5.22;;;3.70;;
19776;SDS011;10047;42.490;26.012;2023-03-01T08:19:28;5.13;;;3.40;;
19776;SDS011;10047;42.490;26.012;2023-03-01T08:21:53;5.72;;;3.55;;
19776;SDS011;10047;42.490;26.012;2023-03-01T08:24:19;5.47;;;3.60;;
19776;SDS011;10047;42.490;26.012;2023-03-01T08:26:44;4.13;;;3.47;;
19776;SDS011;10047;42.490;26.012;2023-03-01T08:29:10;4.78;;;2.90;;
19776;SDS011;10047;42.490;26.012;2023-03-01T08:31:36;6.38;;;3.53;;
19776;SDS011;10047;42.490;26.012;2023-03-01T08:34:05;5.15;;;3.20;;
19776;SDS011;10047;42.490;26.012;2023-03-01T08:36:36;6.10;;;4.05;;
19776;SDS011;10047;42.490;26.012;2023-03-01T08:39:04;5.93;;;3.95;;
19776;SDS011;10047;42.490;26.012;2023-03-01T08:41:30;6.65;;;4.75;;
19776;SDS011;10047;42.490;26.012;2023-03-01T08:43:55;5.88;;;3.90;;
19776;SDS011;10047;42.490;26.012;2023-03-01T08:48:56;7.70;;;4.47;;
19776;SDS011;10047;42.490;26.012;2023-03-01T08:51:22;7.00;;;4.53;;
19776;SDS011;10047;42.490;26.012;2023-03-01T08:53:48;8.57;;;5.53;;
19776;SDS011;10047;42.490;26.012;2023-03-01T08:56:14;8.80;;;5.40;;
19776;SDS011;10047;42.490;26.012;2023-03-01T08:58:40;7.05;;;3.88;;
19776;SDS011;10047;42.490;26.012;2023-03-01T09:01:09;6.65;;;4.60;;
19776;SDS011;10047;42.490;26.012;2023-03-01T09:03:36;6.28;;;4.18;;
19776;SDS011;10047;42.490;26.012;2023-03-01T09:06:02;6.93;;;4.25;;
19776;SDS011;10047;42.490;26.012;2023-03-01T09:08:29;6.50;;;3.92;;
19776;SDS011;10047;42.490;26.012;2023-03-01T09:10:55;5.75;;;3.97;;
19776;SDS011;10047;42.490;26.012;2023-03-01T09:13:21;4.57;;;3.50;;
19776;SDS011;10047;42.490;26.012;2023-03-01T09:15:49;7.57;;;4.65;;
19776;SDS011;10047;42.490;26.012;2023-03-01T09:18:16;9.73;;;5.65;;
19776;SDS011;10047;42.490;26.012;2023-03-01T09:20:41;9.73;;;6.57;;
19776;SDS011;10047;42.490;26.012;2023-03-01T09:23:07;11.52;;;6.20;;
19776;SDS011;10047;42.490;26.012;2023-03-01T09:25:33;10.30;;;6.68;;
19776;SDS011;10047;42.490;26.012;2023-03-01T09:27:59;11.02;;;6.90;;
19776;SDS011;10047;42.490;26.012;2023-03-01T09:30:25;13.57;;;7.63;;
19776;SDS011;10047;42.490;26.012;2023-03-01T09:32:50;9.18;;;6.03;;
19776;SDS011;10047;42.490;26.012;2023-03-01T09:35:16;7.35;;;5.10;;
19776;SDS011;10047;42.490;26.012;2023-03-01T09:37:41;10.50;;;5.60;;
19776;SDS011;10047;42.490;26.012;2023-03-01T09:40:12;7.10;;;5.40;;
19776;SDS011;10047;42.490;26.012;2023-03-01T09:43:42;7.20;;;5.75;;
19776;SDS011;10047;42.490;26.012;2023-03-01T09:45:56;8.18;;;5.25;;
19776;SDS011;10047;42.490;26.012;2023-03-01T09:48:29;8.90;;;5.95;;
19776;SDS011;10047;42.490;26.012;2023-03-01T09:51:02;7.35;;;5.18;;
19776;SDS011;10047;42.490;26.012;2023-03-01T09:56:04;9.63;;;6.18;;
19776;SDS011;10047;42.490;26.012;2023-03-01T09:59:20;10.40;;;6.30;;
19776;SDS011;10047;42.490;26.012;2023-03-01T10:09:43;14.43;;;8.02;;
19776;SDS011;10047;42.490;26.012;2023-03-01T10:12:15;10.30;;;7.05;;
19776;SDS011;10047;42.490;26.012;2023-03-01T10:23:22;12.68;;;7.55;;
19776;SDS011;10047;42.490;26.012;2023-03-01T10:31:01;9.95;;;6.03;;
19776;SDS011;10047;42.490;26.012;2023-03-01T10:33:31;14.18;;;8.57;;
19776;SDS011;10047;42.490;26.012;2023-03-01T10:36:00;13.55;;;8.57;;
19776;SDS011;10047;42.490;26.012;2023-03-01T10:38:27;12.82;;;7.53;;
19776;SDS011;10047;42.490;26.012;2023-03-01T10:40:57;10.43;;;6.63;;
19776;SDS011;10047;42.490;26.012;2023-03-01T10:44:09;8.63;;;5.85;;
19776;SDS011;10047;42.490;26.012;2023-03-01T10:51:44;11.13;;;6.78;;
19776;SDS011;10047;42.490;26.012;2023-03-01T10:54:16;8.55;;;5.80;;
19776;SDS011;10047;42.490;26.012;2023-03-01T10:56:49;9.68;;;6.93;;
19776;SDS011;10047;42.490;26.012;2023-03-01T10:59:26;11.05;;;6.63;;
19776;SDS011;10047;42.490;26.012;2023-03-01T11:02:13;10.77;;;6.20;;
19776;SDS011;10047;42.490;26.012;2023-03-01T11:10:35;10.65;;;6.68;;
19776;SDS011;10047;42.490;26.012;2023-03-01T11:13:09;8.50;;;5.40;;
19776;SDS011;10047;42.490;26.012;2023-03-01T11:15:40;7.20;;;5.05;;
19776;SDS011;10047;42.490;26.012;2023-03-01T11:18:18;7.57;;;5.20;;
19776;SDS011;10047;42.490;26.012;2023-03-01T11:20:48;8.20;;;5.50;;
19776;SDS011;10047;42.490;26.012;2023-03-01T11:23:17;8.60;;;5.80;;
19776;SDS011;10047;42.490;26.012;2023-03-01T11:25:46;8.02;;;5.43;;
19776;SDS011;10047;42.490;26.012;2023-03-01T11:28:17;9.20;;;6.50;;
19776;SDS011;10047;42.490;26.012;2023-03-01T11:33:37;11.10;;;6.00;;
19776;SDS011;10047;42.490;26.012;2023-03-01T11:36:13;11.05;;;7.25;;
19776;SDS011;10047;42.490;26.012;2023-03-01T11:38:46;8.25;;;5.85;;
19776;SDS011;10047;42.490;26.012;2023-03-01T11:54:18;7.65;;;5.30;;
19776;SDS011;10047;42.490;26.012;2023-03-01T11:56:47;9.13;;;5.80;;
19776;SDS011;10047;42.490;26.012;2023-03-01T12:18:48;8.98;;;6.35;;
19776;SDS011;10047;42.490;26.012;2023-03-01T12:29:41;14.85;;;8.73;;
19776;SDS011;10047;42.490;26.012;2023-03-01T12:46:49;11.80;;;8.07;;
19776;SDS011;10047;42.490;26.012;2023-03-01T12:49:57;10.82;;;6.90;;
19776;SDS011;10047;42.490;26.012;2023-03-01T12:52:38;10.40;;;7.65;;
19776;SDS011;10047;42.490;26.012;2023-03-01T12:55:18;13.27;;;9.50;;
19776;SDS011;10047;42.490;26.012;2023-03-01T12:58:02;15.60;;;9.70;;
19776;SDS011;10047;42.490;26.012;2023-03-01T13:06:42;14.57;;;9.63;;
19776;SDS011;10047;42.490;26.012;2023-03-01T13:11:43;10.80;;;7.80;;
19776;SDS011;10047;42.490;26.012;2023-03-01T13:16:50;11.10;;;8.10;;
19776;SDS011;10047;42.490;26.012;2023-03-01T13:19:24;12.23;;;8.63;;
19776;SDS011;10047;42.490;26.012;2023-03-01T13:21:51;13.75;;;8.98;;
19776;SDS011;10047;42.490;26.012;2023-03-01T13:35:00;15.02;;;11.45;;
19776;SDS011;10047;42.490;26.012;2023-03-01T13:37:37;14.55;;;10.32;;
19776;SDS011;10047;42.490;26.012;2023-03-01T13:42:41;14.57;;;10.93;;
19776;SDS011;10047;42.490;26.012;2023-03-01T13:45:53;16.63;;;11.85;;
19776;SDS011;10047;42.490;26.012;2023-03-01T13:48:03;18.85;;;12.80;;
19776;SDS011;10047;42.490;26.012;2023-03-01T13:50:49;17.45;;;11.50;;
19776;SDS011;10047;42.490;26.012;2023-03-01T13:53:18;16.77;;;11.82;;
19776;SDS011;10047;42.490;26.012;2023-03-01T13:55:57;18.33;;;11.68;;
19776;SDS011;10047;42.490;26.012;2023-03-01T14:03:22;18.00;;;11.82;;
19776;SDS011;10047;42.490;26.012;2023-03-01T14:08:34;21.30;;;13.85;;
19776;SDS011;10047;42.490;26.012;2023-03-01T14:21:58;22.50;;;14.35;;
19776;SDS011;10047;42.490;26.012;2023-03-01T14:24:46;23.85;;;15.98;;
19776;SDS011;10047;42.490;26.012;2023-03-01T14:27:14;26.73;;;17.73;;
19776;SDS011;10047;42.490;26.012;2023-03-01T14:29:40;28.83;;;18.40;;
19776;SDS011;10047;42.490;26.012;2023-03-01T14:34:45;17.83;;;12.93;;
19776;SDS011;10047;42.490;26.012;2023-03-01T14:37:25;17.63;;;12.57;;
19776;SDS011;10047;42.490;26.012;2023-03-01T14:39:53;13.90;;;9.82;;
19776;SDS011;10047;42.490;26.012;2023-03-01T14:42:21;45.42;;;21.20;;
19776;SDS011;10047;42.490;26.012;2023-03-01T14:44:50;21.60;;;14.73;;
19776;SDS011;10047;42.490;26.012;2023-03-01T14:47:22;20.45;;;14.02;;
19776;SDS011;10047;42.490;26.012;2023-03-01T14:49:54;21.38;;;14.82;;
19776;SDS011;10047;42.490;26.012;2023-03-01T14:52:25;20.98;;;15.98;;
19776;SDS011;10047;42.490;26.012;2023-03-01T14:54:59;19.15;;;14.18;;
19776;SDS011;10047;42.490;26.012;2023-03-01T14:57:27;20.85;;;15.50;;
19776;SDS011;10047;42.490;26.012;2023-03-01T14:59:57;21.05;;;15.57;;
19776;SDS011;10047;42.490;26.012;2023-03-01T15:02:25;26.45;;;16.52;;
19776;SDS011;10047;42.490;26.012;2023-03-01T15:04:56;27.23;;;17.25;;
19776;SDS011;10047;42.490;26.012;2023-03-01T15:07:26;23.58;;;17.33;;
19776;SDS011;10047;42.490;26.012;2023-03-01T15:14:56;24.02;;;16.17;;
19776;SDS011;10047;42.490;26.012;2023-03-01T15:19:48;24.73;;;17.33;;
19776;SDS011;10047;42.490;26.012;2023-03-01T15:22:14;23.55;;;16.83;;
19776;SDS011;10047;42.490;26.012;2023-03-01T15:24:41;25.05;;;18.55;;
19776;SDS011;10047;42.490;26.012;2023-03-01T15:27:14;26.85;;;18.13;;
19776;SDS011;10047;42.490;26.012;2023-03-01T15:35:00;26.17;;;18.35;;
19776;SDS011;10047;42.490;26.012;2023-03-01T15:37:46;32.05;;;24.00;;
19776;SDS011;10047;42.490;26.012;2023-03-01T15:40:26;37.03;;;25.02;;
19776;SDS011;10047;42.490;26.012;2023-03-01T15:43:03;37.33;;;25.27;;
19776;SDS011;10047;42.490;26.012;2023-03-01T15:45:30;42.80;;;30.77;;
19776;SDS011;10047;42.490;26.012;2023-03-01T15:48:01;46.72;;;33.20;;
19776;SDS011;10047;42.490;26.012;2023-03-01T15:50:40;42.63;;;26.52;;
19776;SDS011;10047;42.490;26.012;2023-03-01T15:53:10;30.77;;;22.20;;
19776;SDS011;10047;42.490;26.012;2023-03-01T15:55:41;34.28;;;23.10;;
19776;SDS011;10047;42.490;26.012;2023-03-01T15:58:13;34.97;;;24.38;;
19776;SDS011;10047;42.490;26.012;2023-03-01T16:00:50;36.28;;;22.17;;
19776;SDS011;10047;42.490;26.012;2023-03-01T16:03:21;29.52;;;20.60;;
19776;SDS011;10047;42.490;26.012;2023-03-01T16:05:48;27.95;;;19.23;;
19776;SDS011;10047;42.490;26.012;2023-03-01T16:08:15;35.80;;;21.75;;
19776;SDS011;10047;42.490;26.012;2023-03-01T16:10:41;32.38;;;21.55;;
19776;SDS011;10047;42.490;26.012;2023-03-01T16:13:09;32.88;;;22.42;;
19776;SDS011;10047;42.490;26.012;2023-03-01T16:15:38;32.40;;;21.55;;
19776;SDS011;10047;42.490;26.012;2023-03-01T16:18:04;59.33;;;36.85;;
19776;SDS011;10047;42.490;26.012;2023-03-01T16:20:33;35.03;;;23.20;;
19776;SDS011;10047;42.490;26.012;2023-03-01T16:22:59;34.30;;;21.50;;
19776;SDS011;10047;42.490;26.012;2023-03-01T16:25:25;32.13;;;21.00;;
19776;SDS011;10047;42.490;26.012;2023-03-01T16:27:51;34.55;;;22.50;;
19776;SDS011;10047;42.490;26.012;2023-03-01T16:30:20;35.47;;;21.75;;
19776;SDS011;10047;42.490;26.012;2023-03-01T16:32:47;34.97;;;22.00;;
19776;SDS011;10047;42.490;26.012;2023-03-01T16:35:17;38.83;;;23.48;;
19776;SDS011;10047;42.490;26.012;2023-03-01T16:37:44;43.75;;;24.35;;
19776;SDS011;10047;42.490;26.012;2023-03-01T16:40:31;38.45;;;25.65;;
19776;SDS011;10047;42.490;26.012;2023-03-01T16:42:56;42.05;;;23.85;;
19776;SDS011;10047;42.490;26.012;2023-03-01T16:45:25;41.47;;;25.83;;
19776;SDS011;10047;42.490;26.012;2023-03-01T16:47:52;46.08;;;28.15;;
19776;SDS011;10047;42.490;26.012;2023-03-01T16:50:18;44.85;;;26.98;;
19776;SDS011;10047;42.490;26.012;2023-03-01T16:52:43;44.47;;;27.02;;
19776;SDS011;10047;42.490;26.012;2023-03-01T16:55:09;47.22;;;28.67;;
19776;SDS011;10047;42.490;26.012;2023-03-01T16:57:35;44.13;;;28.45;;
19776;SDS011;10047;42.490;26.012;2023-03-01T17:00:02;45.83;;;27.13;;
19776;SDS011;10047;42.490;26.012;2023-03-01T17:02:32;45.95;;;28.60;;
19776;SDS011;10047;42.490;26.012;2023-03-01T17:04:58;46.08;;;27.33;;
19776;SDS011;10047;42.490;26.012;2023-03-01T17:07:24;43.35;;;27.48;;
19776;SDS011;10047;42.490;26.012;2023-03-01T17:09:49;43.20;;;27.08;;
19776;SDS011;10047;42.490;26.012;2023-03-01T17:12:14;47.88;;;29.80;;
19776;SDS011;10047;42.490;26.012;2023-03-01T17:14:40;48.63;;;27.63;;
19776;SDS011;10047;42.490;26.012;2023-03-01T17:17:07;49.95;;;31.42;;
19776;SDS011;10047;42.490;26.012;2023-03-01T17:19:36;40.67;;;26.98;;
19776;SDS011;10047;42.490;26.012;2023-03-01T17:22:08;52.75;;;30.50;;
19776;SDS011;10047;42.490;26.012;2023-03-01T17:24:35;48.03;;;30.05;;
19776;SDS011;10047;42.490;26.012;2023-03-01T17:27:02;40.75;;;26.85;;
19776;SDS011;10047;42.490;26.012;2023-03-01T17:29:27;42.40;;;27.40;;